Time;durP1;ratioP1;P1;durP2;ratioP2;P2;SDS_P1;SDS_P2;PMS_P1;PMS_P2;Temp;Humidity;BMP_temperature;BMP_pressure;BME280_temperature;BME280_humidity;BME280_pressure;Samples;Min_cycle;Max_cycle;Signal;HPM_P1;HPM_P2
2022/07/08 00:01:33;;;;;;;;;;;;;;;28.89;35.66;95208.75;4993153;28;7322;-63
2022/07/08 00:04:03;;;;;;;;;;;;;;;28.89;35.95;95219.06;5007646;28;7251;-63
2022/07/08 00:06:29;;;;;;;;;;;;;;;28.87;35.87;95216.06;4992407;28;7285;-63
2022/07/08 00:08:58;;;;;;;;;;;;;;;28.84;36.21;95209.53;4990723;28;7260;-63
2022/07/08 00:11:24;;;;;;;;;;;;;;;28.85;36.16;95201.97;4989587;28;9100;-63
2022/07/08 00:13:50;;;;;;;;;;;;;;;28.84;36.19;95206.75;4993527;28;6862;-63
2022/07/08 00:16:16;;;;;;;;;;;;;;;28.83;36.10;95204.50;4994893;28;9244;-63
2022/07/08 00:18:42;;;;;;;;;;;;;;;28.83;36.04;95208.03;4984159;28;8016;-63
2022/07/08 00:21:08;;;;;;;;;;;;;;;28.85;36.46;95204.75;4988267;28;7225;-63
2022/07/08 00:23:34;;;;;;;;;;;;;;;28.83;35.99;95204.50;4986276;28;7247;-63
2022/07/08 00:26:00;;;;;;;;;;;;;;;28.83;36.33;95198.97;4988435;28;7020;-63
2022/07/08 00:28:40;;;;;;;;;;;;;;;28.83;36.19;95210.03;4991425;28;9279;-63
2022/07/08 00:31:07;;;;;;;;;;;;;;;28.83;35.76;95210.81;4985371;28;7119;-63
2022/07/08 00:33:36;;;;;;;;;;;;;;;28.81;36.08;95202.25;4990107;28;9047;-63
2022/07/08 00:36:05;;;;;;;;;;;;;;;28.85;36.05;95211.03;4992108;28;9141;-63
2022/07/08 00:38:31;;;;;;;;;;;;;;;28.83;36.17;95213.56;5009741;28;7852;-63
2022/07/08 00:41:02;;;;;;;;;;;;;;;28.86;36.03;95218.06;5009914;28;7092;-63
2022/07/08 00:43:43;;;;;;;;;;;;;;;28.85;36.39;95213.06;4993132;28;9149;-63
2022/07/08 00:46:12;;;;;;;;;;;;;;;28.86;36.61;95209.03;4988649;28;7335;-63
2022/07/08 00:48:39;;;;;;;;;;;;;;;28.85;36.73;95204.75;5007222;28;7002;-63
2022/07/08 00:51:08;;;;;;;;;;;;;;;28.85;36.36;95211.03;4974818;28;7322;-63
2022/07/08 00:53:44;;;;;;;;;;;;;;;28.85;36.36;95205.50;4991871;28;9492;-63
2022/07/08 00:56:11;;;;;;;;;;;;;;;28.86;36.09;95201.47;4986080;28;7926;-63
2022/07/08 00:58:48;;;;;;;;;;;;;;;28.85;36.16;95202.75;5009841;28;7229;-63
2022/07/08 01:01:15;;;;;;;;;;;;;;;28.84;36.27;95197.72;5013574;28;7185;-63
2022/07/08 01:03:44;;;;;;;;;;;;;;;28.87;36.23;95196.69;5010856;28;9089;-63
2022/07/08 01:06:10;;;;;;;;;;;;;;;28.87;36.57;95196.69;4994090;28;7271;-63
2022/07/08 01:08:36;;;;;;;;;;;;;;;28.87;36.47;95205.75;4993536;28;7187;-63
2022/07/08 01:11:04;;;;;;;;;;;;;;;28.86;36.31;95198.69;4990600;28;7137;-63
2022/07/08 01:13:30;;;;;;;;;;;;;;;28.88;36.11;95203.72;4996406;28;7371;-63
2022/07/08 01:15:56;;;;;;;;;;;;;;;28.83;36.65;95201.75;4979281;28;9250;-64
2022/07/08 01:18:27;;;;;;;;;;;;;;;28.81;36.30;95191.19;4995016;28;7059;-63
2022/07/08 01:20:55;;;;;;;;;;;;;;;28.83;36.39;95194.19;5010161;28;9131;-63
2022/07/08 01:23:21;;;;;;;;;;;;;;;28.82;36.45;95189.91;4981620;28;7237;-63
2022/07/08 01:25:48;;;;;;;;;;;;;;;28.82;36.33;95189.91;5011099;28;7444;-63
2022/07/08 01:28:15;;;;;;;;;;;;;;;28.80;36.14;95192.44;4991634;28;8722;-63
2022/07/08 01:30:44;;;;;;;;;;;;;;;28.81;35.96;95188.41;4977708;28;7035;-63
2022/07/08 01:33:35;;;;;;;;;;;;;;;28.83;36.55;95190.66;4989777;28;7268;-63
2022/07/08 01:36:12;;;;;;;;;;;;;;;28.82;36.52;95197.47;5014932;28;8750;-63
2022/07/08 01:38:40;;;;;;;;;;;;;;;28.79;36.30;95193.72;4995848;28;9059;-63
2022/07/08 01:41:07;;;;;;;;;;;;;;;28.80;36.66;95192.44;4994828;28;6991;-63
2022/07/08 01:43:40;;;;;;;;;;;;;;;28.80;36.52;95197.22;4993399;28;7781;-63
2022/07/08 01:46:11;;;;;;;;;;;;;;;28.76;36.27;95191.97;4994479;28;9472;-63
2022/07/08 01:48:37;;;;;;;;;;;;;;;28.81;36.63;95202.25;4996536;28;9396;-63
2022/07/08 01:51:06;;;;;;;;;;;;;;;28.77;36.16;95201.78;5000558;28;7126;-63
2022/07/08 01:53:49;;;;;;;;;;;;;;;28.79;36.13;95196.50;4992953;28;8772;-63
2022/07/08 01:56:50;;;;;;;;;;;;;;;28.80;36.75;95206.28;4982534;28;7989;-63
2022/07/08 01:59:27;;;;;;;;;;;;;;;28.79;36.59;95199.25;4949684;28;9166;-63
2022/07/08 02:02:03;;;;;;;;;;;;;;;28.81;36.91;95207.03;4951285;28;7066;-63
2022/07/08 02:04:58;;;;;;;;;;;;;;;28.81;36.15;95207.81;4946058;28;7199;-63
2022/07/08 02:07:34;;;;;;;;;;;;;;;28.79;36.66;95193.72;4891500;29;7227;-63
2022/07/08 02:10:14;;;;;;;;;;;;;;;28.82;36.40;95203.75;4880958;29;7248;-63
2022/07/08 02:12:40;;;;;;;;;;;;;;;28.79;36.44;95190.19;4874319;29;7599;-63
2022/07/08 02:15:08;;;;;;;;;;;;;;;28.78;36.89;95196.97;4877994;29;7263;-63
2022/07/08 02:17:46;;;;;;;;;;;;;;;28.78;36.17;95196.97;4888910;29;9376;-63
2022/07/08 02:20:13;;;;;;;;;;;;;;;28.79;36.79;95202.03;4871924;29;7258;-63
2022/07/08 02:22:54;;;;;;;;;;;;;;;28.77;36.65;95201.78;4876961;29;7273;-63
2022/07/08 02:25:20;;;;;;;;;;;;;;;28.79;36.44;95212.34;4887701;29;9020;-63
2022/07/08 02:27:46;;;;;;;;;;;;;;;28.78;36.29;95214.34;4875961;29;7327;-63
2022/07/08 02:30:26;;;;;;;;;;;;;;;28.78;36.21;95214.34;4879016;29;9710;-63
2022/07/08 02:33:23;;;;;;;;;;;;;;;28.75;36.55;95200.78;4895141;28;7507;-63
2022/07/08 02:35:58;;;;;;;;;;;;;;;28.73;36.70;95203.31;4873240;29;9101;-63
2022/07/08 02:38:36;;;;;;;;;;;;;;;28.74;36.29;95211.09;4869019;29;7593;-63
2022/07/08 02:41:38;;;;;;;;;;;;;;;28.75;36.76;95206.34;4856602;29;9075;-63
2022/07/08 02:44:05;;;;;;;;;;;;;;;28.71;36.35;95203.81;4862627;29;7196;-63
2022/07/08 02:46:31;;;;;;;;;;;;;;;28.73;36.42;95220.66;4875098;29;6981;-63
2022/07/08 02:48:57;;;;;;;;;;;;;;;28.72;36.56;95213.63;4876804;29;7541;-63
2022/07/08 02:51:25;;;;;;;;;;;;;;;28.71;36.78;95214.88;4892091;29;8796;-63
2022/07/08 02:53:55;;;;;;;;;;;;;;;28.70;36.83;95210.63;4890214;29;9249;-63
2022/07/08 02:56:23;;;;;;;;;;;;;;;28.71;36.63;95220.44;4888755;29;8172;-63
2022/07/08 02:58:59;;;;;;;;;;;;;;;28.73;36.54;95228.97;4889838;29;7246;-63
2022/07/08 03:01:25;;;;;;;;;;;;;;;28.71;36.89;95225.97;4869753;29;8839;-63
2022/07/08 03:03:51;;;;;;;;;;;;;;;28.70;37.30;95232.78;4883713;29;7148;-62
2022/07/08 03:06:18;;;;;;;;;;;;;;;28.71;36.70;95230.78;4883464;29;8873;-63
2022/07/08 03:08:45;;;;;;;;;;;;;;;28.71;36.88;95230.78;4867563;29;7263;-63
2022/07/08 03:11:11;;;;;;;;;;;;;;;28.70;37.09;95234.78;4885784;29;7002;-63
2022/07/08 03:13:37;;;;;;;;;;;;;;;28.71;36.93;95231.50;4907629;29;7318;-63
2022/07/08 03:16:08;;;;;;;;;;;;;;;28.71;36.71;95234.28;4918501;29;6987;-63
2022/07/08 03:18:35;;;;;;;;;;;;;;;28.71;36.62;95242.56;4967949;28;7508;-63
2022/07/08 03:21:18;;;;;;;;;;;;;;;28.71;37.15;95237.03;5012735;28;7389;-63
2022/07/08 03:24:03;;;;;;;;;;;;;;;28.70;36.63;95243.84;4992601;28;7378;-63
2022/07/08 03:27:00;;;;;;;;;;;;;;;28.71;36.87;95250.16;5012541;28;7131;-63
2022/07/08 03:29:36;;;;;;;;;;;;;;;28.69;36.94;95250.66;4948059;28;7340;-63
2022/07/08 03:32:02;;;;;;;;;;;;;;;28.70;36.74;95251.41;4945746;28;9479;-63
2022/07/08 03:34:28;;;;;;;;;;;;;;;28.69;37.13;95250.66;4929060;28;7021;-63
2022/07/08 03:37:10;;;;;;;;;;;;;;;28.67;36.98;95247.63;4948723;28;7343;-63
2022/07/08 03:39:53;;;;;;;;;;;;;;;28.66;37.12;95248.91;4948659;28;7228;-63
2022/07/08 03:42:35;;;;;;;;;;;;;;;28.67;37.24;95250.41;4933244;28;7295;-63
2022/07/08 03:45:12;;;;;;;;;;;;;;;28.66;36.59;95262.75;4947436;28;8885;-63
2022/07/08 03:48:03;;;;;;;;;;;;;;;28.65;36.90;95252.94;4949703;28;6996;-63
2022/07/08 03:50:31;;;;;;;;;;;;;;;28.65;36.81;95255.69;4933557;29;9161;-62
2022/07/08 03:52:58;;;;;;;;;;;;;;;28.65;37.18;95261.22;4948752;29;9398;-62
2022/07/08 03:55:30;;;;;;;;;;;;;;;28.67;37.11;95266.25;4931171;29;7415;-62
2022/07/08 03:57:58;;;;;;;;;;;;;;;28.67;36.86;95264.25;4950064;29;9295;-63
2022/07/08 04:00:34;;;;;;;;;;;;;;;28.67;37.04;95271.78;4949455;29;9025;-62
2022/07/08 04:03:13;;;;;;;;;;;;;;;28.67;37.05;95272.56;4929008;29;8703;-62
2022/07/08 04:05:40;;;;;;;;;;;;;;;28.64;37.02;95270.81;4954815;28;7192;-62
2022/07/08 04:08:09;;;;;;;;;;;;;;;28.67;36.91;95278.09;5013240;28;7064;-62
2022/07/08 04:10:39;;;;;;;;;;;;;;;28.64;36.95;95273.59;4998443;28;9186;-62
2022/07/08 04:13:05;;;;;;;;;;;;;;;28.67;37.05;95285.63;4996849;28;7087;-62
2022/07/08 04:15:31;;;;;;;;;;;;;;;28.66;36.64;95275.84;4996197;28;9120;-62
2022/07/08 04:17:59;;;;;;;;;;;;;;;28.65;37.03;95277.84;4996089;28;9029;-62
2022/07/08 04:20:28;;;;;;;;;;;;;;;28.66;37.29;95275.84;4994924;28;7866;-62
2022/07/08 04:23:00;;;;;;;;;;;;;;;28.65;37.53;95288.91;4998605;28;7120;-62
2022/07/08 04:25:46;;;;;;;;;;;;;;;28.64;36.96;95284.66;5011711;28;7210;-62
2022/07/08 04:28:13;;;;;;;;;;;;;;;28.61;36.79;95280.13;4995412;28;7675;-62
2022/07/08 04:30:38;;;;;;;;;;;;;;;28.62;36.60;95291.97;5002052;28;7169;-62
2022/07/08 04:33:13;;;;;;;;;;;;;;;28.62;37.15;95292.72;5000562;28;7577;-62
2022/07/08 04:35:39;;;;;;;;;;;;;;;28.62;36.94;95295.50;5001029;28;7254;-62
2022/07/08 04:38:30;;;;;;;;;;;;;;;28.61;37.15;95291.22;5021244;28;7223;-62
2022/07/08 04:40:56;;;;;;;;;;;;;;;28.59;37.22;95290.97;5003991;28;7494;-63
2022/07/08 04:43:22;;;;;;;;;;;;;;;28.57;37.06;95296.25;4996182;28;6984;-62
2022/07/08 04:45:50;;;;;;;;;;;;;;;28.53;37.44;95295.75;4996832;28;7241;-62
2022/07/08 04:48:22;;;;;;;;;;;;;;;28.52;36.86;95293.47;5013688;28;9254;-62
2022/07/08 04:50:54;;;;;;;;;;;;;;;28.51;36.97;95295.50;5001035;28;7207;-62
2022/07/08 04:53:20;;;;;;;;;;;;;;;28.51;37.11;95287.19;5007945;28;8443;-62
2022/07/08 04:55:49;;;;;;;;;;;;;;;28.54;37.17;95286.16;4992791;28;7298;-62
2022/07/08 04:58:15;;;;;;;;;;;;;;;28.57;37.12;95289.94;5012603;28;6992;-62
2022/07/08 05:00:41;;;;;;;;;;;;;;;28.58;37.18;95292.22;5004226;28;9232;-62
2022/07/08 05:03:07;;;;;;;;;;;;;;;28.57;37.54;95301.78;5011759;28;7000;-63
2022/07/08 05:05:34;;;;;;;;;;;;;;;28.54;37.30;95302.78;5003403;28;9383;-62
2022/07/08 05:08:01;;;;;;;;;;;;;;;28.51;37.34;95309.34;5008240;28;9062;-62
2022/07/08 05:10:28;;;;;;;;;;;;;;;28.52;37.38;95302.53;5006301;28;7220;-62
2022/07/08 05:12:55;;;;;;;;;;;;;;;28.52;37.54;95301.78;5012511;28;7258;-62
2022/07/08 05:15:21;;;;;;;;;;;;;;;28.52;37.21;95315.59;4994165;28;9521;-62
2022/07/08 05:17:47;;;;;;;;;;;;;;;28.51;37.48;95306.56;5012885;28;8925;-62
2022/07/08 05:20:14;;;;;;;;;;;;;;;28.50;37.52;95302.28;4988011;28;7144;-62
2022/07/08 05:22:41;;;;;;;;;;;;;;;28.48;37.19;95313.13;5005216;28;7226;-62
2022/07/08 05:25:24;;;;;;;;;;;;;;;28.46;37.53;95312.09;5005607;28;10044;-62
2022/07/08 05:27:57;;;;;;;;;;;;;;;28.45;37.45;95313.38;4997116;28;7269;-62
2022/07/08 05:30:29;;;;;;;;;;;;;;;28.46;37.16;95314.88;4995497;28;6996;-62
2022/07/08 05:32:56;;;;;;;;;;;;;;;28.47;37.21;95317.13;5001928;28;7618;-62
2022/07/08 05:35:53;;;;;;;;;;;;;;;28.44;37.28;95315.41;4985518;28;7246;-62
2022/07/08 05:38:35;;;;;;;;;;;;;;;28.43;37.02;95316.66;4970430;28;9410;-62
2022/07/08 05:41:12;;;;;;;;;;;;;;;28.41;38.14;95312.88;4968577;28;9097;-61
2022/07/08 05:43:59;;;;;;;;;;;;;;;28.40;37.34;95312.13;4970565;28;8809;-61
2022/07/08 05:46:37;;;;;;;;;;;;;;;28.41;37.00;95313.63;4958215;28;7241;-61
2022/07/08 05:49:07;;;;;;;;;;;;;;;28.39;36.95;95316.16;4968951;28;7074;-61
2022/07/08 05:51:43;;;;;;;;;;;;;;;28.40;37.30;95312.13;4955043;28;7066;-61
2022/07/08 05:54:09;;;;;;;;;;;;;;;28.38;36.74;95314.66;4970825;28;7330;-61
2022/07/08 05:56:36;;;;;;;;;;;;;;;28.31;36.94;95313.16;4950563;28;6861;-61
2022/07/08 05:59:13;;;;;;;;;;;;;;;28.27;36.54;95312.66;4967632;28;7350;-61
2022/07/08 06:01:57;;;;;;;;;;;;;;;28.27;36.90;95317.47;4943285;28;7088;-61
2022/07/08 06:04:35;;;;;;;;;;;;;;;28.25;36.06;95323.47;4971883;28;7370;-61
2022/07/08 06:07:03;;;;;;;;;;;;;;;28.24;35.51;95330.28;4975063;28;7244;-61
2022/07/08 06:09:37;;;;;;;;;;;;;;;28.21;35.68;95328.50;4961149;28;9058;-61
2022/07/08 06:12:05;;;;;;;;;;;;;;;28.26;35.42;95327.00;4954307;28;7206;-61
2022/07/08 06:14:30;;;;;;;;;;;;;;;28.25;35.50;95322.75;4964214;28;7277;-61
2022/07/08 06:16:56;;;;;;;;;;;;;;;28.23;35.42;95330.78;5000142;28;7231;-61
2022/07/08 06:19:25;;;;;;;;;;;;;;;28.25;35.07;95320.72;4999452;28;7233;-62
2022/07/08 06:21:53;;;;;;;;;;;;;;;28.22;35.20;95315.44;5010571;28;7215;-62
2022/07/08 06:24:23;;;;;;;;;;;;;;;28.24;35.15;95324.75;5006136;28;7155;-63
2022/07/08 06:27:05;;;;;;;;;;;;;;;28.26;35.20;95329.78;5017761;28;7293;-63
2022/07/08 06:29:52;;;;;;;;;;;;;;;28.24;34.96;95324.00;5000781;28;7291;-62
2022/07/08 06:32:20;;;;;;;;;;;;;;;28.27;35.35;95334.06;4996063;28;9521;-63
2022/07/08 06:34:46;;;;;;;;;;;;;;;28.27;35.24;95325.75;5000862;28;7246;-63
2022/07/08 06:37:41;;;;;;;;;;;;;;;28.26;35.28;95322.22;4994332;28;7297;-63
2022/07/08 06:40:13;;;;;;;;;;;;;;;28.28;34.87;95322.47;5013608;28;7102;-63
2022/07/08 06:43:05;;;;;;;;;;;;;;;28.29;35.22;95320.47;4996906;28;7347;-63
2022/07/08 06:45:33;;;;;;;;;;;;;;;28.30;35.25;95324.72;4996902;28;9310;-63
2022/07/08 06:48:04;;;;;;;;;;;;;;;28.29;35.62;95332.28;4992981;28;7084;-63
2022/07/08 06:50:42;;;;;;;;;;;;;;;28.28;35.19;95332.78;5016366;28;6977;-62
2022/07/08 06:53:15;;;;;;;;;;;;;;;28.24;35.49;95324.00;5018011;28;7250;-63
2022/07/08 06:55:44;;;;;;;;;;;;;;;28.27;35.42;95332.03;5012762;28;7250;-62
2022/07/08 06:58:42;;;;;;;;;;;;;;;28.27;35.67;95332.03;4999855;28;7217;-63
2022/07/08 07:01:22;;;;;;;;;;;;;;;28.27;35.71;95328.53;4925457;28;8480;-63
2022/07/08 07:03:48;;;;;;;;;;;;;;;28.26;35.70;95329.78;4951361;28;8911;-62
2022/07/08 07:06:34;;;;;;;;;;;;;;;28.28;35.27;95328.00;4946407;28;6981;-62
2022/07/08 07:09:02;;;;;;;;;;;;;;;28.27;35.95;95334.78;4939749;28;7425;-62
2022/07/08 07:11:39;;;;;;;;;;;;;;;28.26;35.98;95338.06;4933038;28;7235;-62
2022/07/08 07:14:06;;;;;;;;;;;;;;;28.26;35.63;95338.06;4944519;28;9052;-63
2022/07/08 07:16:33;;;;;;;;;;;;;;;28.26;36.06;95338.81;4945004;28;8981;-62
2022/07/08 07:18:59;;;;;;;;;;;;;;;28.25;35.82;95336.56;4957736;28;7075;-62
2022/07/08 07:21:30;;;;;;;;;;;;;;;28.26;36.02;95327.75;4949730;28;7177;-62
2022/07/08 07:24:28;;;;;;;;;;;;;;;28.23;36.07;95334.28;4943923;28;7169;-62
2022/07/08 07:26:56;;;;;;;;;;;;;;;28.24;36.25;95329.53;4856540;29;7033;-62
2022/07/08 07:29:23;;;;;;;;;;;;;;;28.21;36.20;95319.47;4849383;29;9588;-62
2022/07/08 07:32:07;;;;;;;;;;;;;;;28.23;36.20;95326.00;4855746;29;9430;-62
2022/07/08 07:34:41;;;;;;;;;;;;;;;28.23;35.96;95314.94;4859900;29;6991;-62
2022/07/08 07:37:34;;;;;;;;;;;;;;;28.26;36.24;95327.00;4868805;29;7082;-62
2022/07/08 07:40:10;;;;;;;;;;;;;;;28.25;36.32;95308.91;4897015;29;9368;-63
2022/07/08 07:42:50;;;;;;;;;;;;;;;28.26;35.89;95316.69;4915809;29;9142;-63
2022/07/08 07:45:24;;;;;;;;;;;;;;;28.26;36.08;95310.41;4895654;29;9405;-62
2022/07/08 07:48:05;;;;;;;;;;;;;;;28.26;36.34;95318.69;4916718;29;7996;-61
2022/07/08 07:50:33;;;;;;;;;;;;;;;28.27;35.79;95317.47;4906477;29;7438;-63
2022/07/08 07:53:00;;;;;;;;;;;;;;;28.23;36.42;95323.22;4918502;29;7309;-64
2022/07/08 07:55:37;;;;;;;;;;;;;;;28.24;36.43;95330.28;4914895;29;8169;-62
2022/07/08 07:58:06;;;;;;;;;;;;;;;28.27;36.58;95325.75;4916762;29;9213;-62
2022/07/08 08:00:34;;;;;;;;;;;;;;;28.26;36.86;95324.22;4914106;29;7275;-63
2022/07/08 08:03:03;;;;;;;;;;;;;;;28.25;36.42;95333.81;4965874;28;9146;-62
2022/07/08 08:05:32;;;;;;;;;;;;;;;28.27;36.46;95334.06;5004969;28;9027;-62
2022/07/08 08:08:13;;;;;;;;;;;;;;;28.26;36.41;95324.22;5024255;28;7497;-62
2022/07/08 08:10:58;;;;;;;;;;;;;;;28.26;36.60;95327.00;5017232;28;9191;-62
2022/07/08 08:13:24;;;;;;;;;;;;;;;28.26;36.24;95321.47;5005173;28;7213;-62
2022/07/08 08:15:50;;;;;;;;;;;;;;;28.26;36.35;95322.22;5014043;28;7240;-62
2022/07/08 08:18:19;;;;;;;;;;;;;;;28.29;36.30;95331.53;5002606;28;8975;-62
2022/07/08 08:20:45;;;;;;;;;;;;;;;28.28;36.36;95332.78;4998035;28;7239;-62
2022/07/08 08:23:14;;;;;;;;;;;;;;;28.27;36.01;95334.06;5008863;28;9367;-62
2022/07/08 08:25:43;;;;;;;;;;;;;;;28.29;36.32;95331.53;5015262;28;9446;-62
2022/07/08 08:28:44;;;;;;;;;;;;;;;28.31;36.37;95340.06;5005234;28;6860;-62
2022/07/08 08:31:13;;;;;;;;;;;;;;;28.29;36.53;95342.59;4956855;28;7380;-63
2022/07/08 08:33:52;;;;;;;;;;;;;;;28.29;36.26;95337.81;4968396;28;7203;-62
2022/07/08 08:36:19;;;;;;;;;;;;;;;28.31;36.46;95334.53;4947945;28;7431;-62
2022/07/08 08:38:56;;;;;;;;;;;;;;;28.31;36.39;95340.06;4955916;28;7251;-62
2022/07/08 08:41:26;;;;;;;;;;;;;;;28.31;36.30;95337.31;4964056;28;6985;-62
2022/07/08 08:43:53;;;;;;;;;;;;;;;28.32;36.13;95341.56;4957413;28;9076;-62
2022/07/08 08:46:24;;;;;;;;;;;;;;;28.31;36.30;95331.78;4962183;28;7989;-62
2022/07/08 08:48:55;;;;;;;;;;;;;;;28.32;36.44;95336.03;4956586;28;7251;-62
2022/07/08 08:51:22;;;;;;;;;;;;;;;28.31;36.46;95334.53;4953922;28;7163;-62
2022/07/08 08:53:52;;;;;;;;;;;;;;;28.32;36.32;95338.81;4959570;28;7072;-62
2022/07/08 08:56:19;;;;;;;;;;;;;;;28.33;35.72;95334.78;4962571;28;7005;-62
2022/07/08 08:59:05;;;;;;;;;;;;;;;28.33;36.54;95335.56;4959563;28;6868;-62
2022/07/08 09:01:32;;;;;;;;;;;;;;;28.34;36.22;95334.28;4963014;28;7026;-62
2022/07/08 09:04:04;;;;;;;;;;;;;;;28.34;35.92;95328.75;4943801;28;8790;-63
2022/07/08 09:06:42;;;;;;;;;;;;;;;28.33;36.31;95340.31;5012277;28;7235;-62
2022/07/08 09:09:17;;;;;;;;;;;;;;;28.33;36.06;95343.09;4998742;28;7214;-63
2022/07/08 09:11:49;;;;;;;;;;;;;;;28.31;36.40;95329.78;5016665;28;7235;-62
2022/07/08 09:14:18;;;;;;;;;;;;;;;28.33;36.45;95330.00;5026829;28;6982;-62
2022/07/08 09:17:10;;;;;;;;;;;;;;;28.34;36.42;95336.28;5001433;28;9119;-62
2022/07/08 09:19:44;;;;;;;;;;;;;;;28.34;36.45;95342.56;5014321;28;7194;-62
2022/07/08 09:22:10;;;;;;;;;;;;;;;28.33;36.14;95341.09;4997577;28;7225;-63
2022/07/08 09:24:38;;;;;;;;;;;;;;;28.35;36.90;95343.34;5004272;28;6975;-62
2022/07/08 09:27:10;;;;;;;;;;;;;;;28.36;36.31;95336.56;4983537;28;7013;-62
2022/07/08 09:29:57;;;;;;;;;;;;;;;28.38;36.05;95350.63;5015293;28;6992;-62
2022/07/08 09:32:35;;;;;;;;;;;;;;;28.38;36.15;95339.56;5020155;28;8921;-62
2022/07/08 09:35:13;;;;;;;;;;;;;;;28.38;36.31;95339.56;5010781;28;8073;-63
2022/07/08 09:37:42;;;;;;;;;;;;;;;28.38;36.27;95349.88;5016734;28;6996;-62
2022/07/08 09:40:21;;;;;;;;;;;;;;;28.40;36.11;95342.56;4995933;28;7238;-63
2022/07/08 09:42:48;;;;;;;;;;;;;;;28.42;36.51;95344.84;5012401;28;7003;-63
2022/07/08 09:45:28;;;;;;;;;;;;;;;28.45;36.56;95338.28;4986518;28;7347;-62
2022/07/08 09:48:13;;;;;;;;;;;;;;;28.48;36.42;95340.78;5001402;28;9105;-63
2022/07/08 09:50:41;;;;;;;;;;;;;;;28.49;36.00;95344.31;4990505;28;7440;-62
2022/07/08 09:53:17;;;;;;;;;;;;;;;28.50;36.25;95343.81;5012633;28;7272;-62
2022/07/08 09:55:51;;;;;;;;;;;;;;;28.52;36.34;95355.13;4996343;28;7289;-62
2022/07/08 09:58:24;;;;;;;;;;;;;;;28.52;36.10;95346.06;5012505;28;6982;-62
2022/07/08 10:00:52;;;;;;;;;;;;;;;28.51;36.22;95348.09;4993581;28;6988;-62
2022/07/08 10:03:22;;;;;;;;;;;;;;;28.54;36.30;95340.75;4993117;28;9030;-62
2022/07/08 10:05:49;;;;;;;;;;;;;;;28.54;36.51;95340.75;4997662;28;7262;-63
2022/07/08 10:08:23;;;;;;;;;;;;;;;28.54;36.45;95343.53;4988719;28;7141;-63
2022/07/08 10:10:49;;;;;;;;;;;;;;;28.54;36.59;95335.97;5002234;28;6939;-63
2022/07/08 10:13:23;;;;;;;;;;;;;;;28.54;36.65;95329.69;5005184;28;7274;-63
2022/07/08 10:15:57;;;;;;;;;;;;;;;28.54;36.24;95329.69;4997676;28;7244;-63
2022/07/08 10:18:40;;;;;;;;;;;;;;;28.52;36.69;95334.97;4993082;28;7667;-62
2022/07/08 10:21:10;;;;;;;;;;;;;;;28.54;36.67;95335.22;5012196;28;9372;-62
2022/07/08 10:23:57;;;;;;;;;;;;;;;28.55;36.21;95331.97;4992029;28;7242;-62
2022/07/08 10:26:40;;;;;;;;;;;;;;;28.54;36.45;95340.75;4993998;28;6996;-62
2022/07/08 10:29:09;;;;;;;;;;;;;;;28.50;37.25;95334.75;5008330;28;9082;-61
2022/07/08 10:31:53;;;;;;;;;;;;;;;28.52;36.78;95335.75;4992377;28;7593;-61
2022/07/08 10:34:28;;;;;;;;;;;;;;;28.50;36.21;95327.19;4986099;28;6969;-61
2022/07/08 10:36:55;;;;;;;;;;;;;;;28.51;35.97;95328.72;4994662;28;9049;-61
2022/07/08 10:39:53;;;;;;;;;;;;;;;28.52;36.01;95321.13;4983508;28;6858;-62
2022/07/08 10:42:32;;;;;;;;;;;;;;;28.53;35.69;95322.66;4983740;28;7333;-62
2022/07/08 10:44:58;;;;;;;;;;;;;;;28.55;35.94;95325.69;5007725;28;9188;-61
2022/07/08 10:47:29;;;;;;;;;;;;;;;28.56;36.11;95321.66;5016519;28;7266;-61
2022/07/08 10:50:05;;;;;;;;;;;;;;;28.57;35.74;95321.16;4994807;28;7164;-62
2022/07/08 10:52:42;;;;;;;;;;;;;;;28.55;35.54;95323.66;5014848;28;9164;-62
2022/07/08 10:55:21;;;;;;;;;;;;;;;28.54;35.38;95329.69;5011195;28;7085;-62
2022/07/08 10:57:57;;;;;;;;;;;;;;;28.54;35.49;95326.91;4994146;28;7479;-62
2022/07/08 11:00:27;;;;;;;;;;;;;;;28.54;35.57;95324.16;5009813;28;7515;-62
2022/07/08 11:03:03;;;;;;;;;;;;;;;28.53;35.06;95323.44;4998915;28;9110;-61
2022/07/08 11:06:07;;;;;;;;;;;;;;;28.55;35.41;95320.91;4995798;28;8901;-62
2022/07/08 11:08:33;;;;;;;;;;;;;;;28.51;35.24;95319.66;4892989;29;7782;-62
2022/07/08 11:11:03;;;;;;;;;;;;;;;28.53;35.07;95322.66;4888485;29;8933;-62
2022/07/08 11:13:29;;;;;;;;;;;;;;;28.54;35.63;95324.91;4906803;29;9362;-62
2022/07/08 11:16:00;;;;;;;;;;;;;;;28.54;34.93;95316.59;4906608;29;8677;-63
2022/07/08 11:18:26;;;;;;;;;;;;;;;28.54;34.74;95313.84;4889901;29;7071;-62
2022/07/08 11:21:20;;;;;;;;;;;;;;;28.55;34.92;95323.66;4905225;29;7054;-62
2022/07/08 11:23:56;;;;;;;;;;;;;;;28.57;35.18;95323.16;4894167;29;7345;-61
2022/07/08 11:26:24;;;;;;;;;;;;;;;28.57;35.07;95326.72;4907085;29;9050;-61
2022/07/08 11:28:51;;;;;;;;;;;;;;;28.58;34.97;95316.41;4903833;29;7546;-61
2022/07/08 11:31:32;;;;;;;;;;;;;;;28.58;34.91;95316.41;4893527;29;7163;-62
2022/07/08 11:34:18;;;;;;;;;;;;;;;28.60;34.87;95322.91;4901883;29;7276;-62
2022/07/08 11:36:59;;;;;;;;;;;;;;;28.59;34.82;95315.13;4901753;29;7093;-61
2022/07/08 11:39:26;;;;;;;;;;;;;;;28.60;34.94;95317.38;4902726;29;9452;-62
2022/07/08 11:41:55;;;;;;;;;;;;;;;28.61;34.29;95313.34;4925802;28;9765;-62
2022/07/08 11:44:24;;;;;;;;;;;;;;;28.65;34.73;95319.38;4999482;28;9209;-62
2022/07/08 11:46:54;;;;;;;;;;;;;;;28.66;34.41;95323.66;4996757;28;7145;-62
2022/07/08 11:49:25;;;;;;;;;;;;;;;28.66;34.40;95320.88;4997732;28;9189;-62
2022/07/08 11:51:55;;;;;;;;;;;;;;;28.68;34.82;95323.91;5005928;28;7266;-62
2022/07/08 11:54:28;;;;;;;;;;;;;;;28.69;34.91;95325.38;5009349;28;7182;-61
2022/07/08 11:57:03;;;;;;;;;;;;;;;28.70;34.35;95324.13;4995334;28;7289;-62
2022/07/08 11:59:46;;;;;;;;;;;;;;;28.71;34.08;95317.31;5018371;28;7076;-62
2022/07/08 12:02:18;;;;;;;;;;;;;;;28.71;34.29;95319.38;5007210;28;9330;-62
2022/07/08 12:04:50;;;;;;;;;;;;;;;28.71;33.94;95309.03;5008950;28;8224;-62
2022/07/08 12:07:54;;;;;;;;;;;;;;;28.74;33.73;95318.31;4989272;28;6992;-62
2022/07/08 12:10:23;;;;;;;;;;;;;;;28.76;33.95;95313.78;4993892;28;7216;-62
2022/07/08 12:12:57;;;;;;;;;;;;;;;28.79;34.04;95318.31;5006567;28;8767;-63
2022/07/08 12:15:38;;;;;;;;;;;;;;;28.80;34.27;95313.50;5011272;28;9443;-63
2022/07/08 12:18:05;;;;;;;;;;;;;;;28.81;34.12;95318.56;5000534;28;7196;-63
2022/07/08 12:20:35;;;;;;;;;;;;;;;28.82;34.32;95314.50;5012661;28;6926;-63
2022/07/08 12:23:02;;;;;;;;;;;;;;;28.83;34.54;95310.50;4992541;28;9103;-62
2022/07/08 12:25:48;;;;;;;;;;;;;;;28.84;34.02;95303.69;4996925;28;7250;-62
2022/07/08 12:28:21;;;;;;;;;;;;;;;28.86;34.58;95305.94;4983194;28;8376;-62
2022/07/08 12:30:47;;;;;;;;;;;;;;;28.87;34.47;95304.69;4977420;28;9518;-62
2022/07/08 12:33:13;;;;;;;;;;;;;;;28.88;35.14;95306.94;5005227;28;7290;-61
2022/07/08 12:35:39;;;;;;;;;;;;;;;28.91;34.62;95302.38;4992777;28;7234;-62
2022/07/08 12:38:07;;;;;;;;;;;;;;;28.89;34.86;95300.13;4992909;28;7225;-61
2022/07/08 12:40:38;;;;;;;;;;;;;;;28.89;35.01;95304.91;4990806;28;6987;-61
2022/07/08 12:43:10;;;;;;;;;;;;;;;28.91;34.71;95307.94;5006850;28;9110;-62
2022/07/08 12:45:39;;;;;;;;;;;;;;;28.90;34.81;95309.19;4998462;28;8538;-62
2022/07/08 12:48:07;;;;;;;;;;;;;;;28.95;35.14;95313.94;5012961;28;7257;-62
2022/07/08 12:50:34;;;;;;;;;;;;;;;28.94;35.44;95312.44;4997149;28;9318;-62
2022/07/08 12:53:03;;;;;;;;;;;;;;;28.94;35.55;95318.00;4997004;28;7644;-62
2022/07/08 12:55:50;;;;;;;;;;;;;;;28.95;34.99;95311.19;4992354;28;6994;-63
2022/07/08 12:58:42;;;;;;;;;;;;;;;28.90;34.89;95312.72;5000780;28;7067;-62
2022/07/08 13:01:09;;;;;;;;;;;;;;;28.87;35.16;95307.44;4997241;28;9525;-62
2022/07/08 13:03:49;;;;;;;;;;;;;;;28.88;35.03;95317.28;5002904;28;6995;-62
2022/07/08 13:06:22;;;;;;;;;;;;;;;28.87;34.42;95319.28;4998472;28;9021;-62
2022/07/08 13:08:57;;;;;;;;;;;;;;;28.85;35.00;95316.28;4995566;28;6861;-61
2022/07/08 13:11:25;;;;;;;;;;;;;;;28.85;35.25;95310.75;5013297;28;7723;-62
2022/07/08 13:13:51;;;;;;;;;;;;;;;28.84;34.62;95320.28;5011188;28;8743;-63
2022/07/08 13:16:17;;;;;;;;;;;;;;;28.87;34.71;95316.50;5003027;28;7956;-62
2022/07/08 13:18:43;;;;;;;;;;;;;;;28.89;34.95;95311.22;5003655;28;7125;-62
2022/07/08 13:21:09;;;;;;;;;;;;;;;28.90;34.98;95312.72;5015034;28;9138;-62
2022/07/08 13:23:53;;;;;;;;;;;;;;;28.89;35.16;95310.44;4997123;28;8772;-61
2022/07/08 13:26:24;;;;;;;;;;;;;;;28.91;34.94;95311.44;4999985;28;7186;-62
2022/07/08 13:28:53;;;;;;;;;;;;;;;28.89;34.51;95302.91;4995828;28;8998;-61